Portland, OR

10:17 PM PDT en Agosto 28, 2014 (GMT -0700)
Portland - West Hills | Change Station
CLOSE
Current Station
Estación meteorológica personal
Location: Portland, OR
Altura: 820 ft
Estaciones meteorológicas cercanas

Alt 820 ft 45.49 °N, 122.69 °W | Updated 3 seconds ago

Despejado
Despejado
67.3 ° F
Sensación térmica 67.3 ° F
N
6.0
Viento Variable Viento desde Norte
Gusts 13.0 mph

Hoy
Alta -- | Baja -- ° F
--% Posibilidad de precipitaciones
Ayer
Alta -- | Baja -- ° F
Precip. -- pul
6:27 AM 7:55 PM
Creciente, 12% visible
Presión 30.01 pul
Visibilidad 10.0 Millas
Nubes Despejado
Punto de rocío 38 ° F
Humedad 34%
Precipitaciones 0.00 pul
Espesor de la nieve No disponible.
UV 0 de una escala de 12
Polen 3.80 de una escala de 12
Ozono Buena
PM2.5 Buena
Flu Activity No disponible.
METAR KPDX 290453Z 31011KT 10SM CLR 22/16 A3001 RMK AO2 SLP161 T02220156

More Conditions Fewer Conditions

Presión 30.01 pul
Visibilidad 10.0 Millas
Nubes Despejado
Punto de rocío 38 ° F
Humedad 34%
Precipitaciones 0.00 pul
Espesor de la nieve No disponible.
UV 0 de una escala de 12
Polen 3.80 de una escala de 12
Ozono Buena
PM2.5 Buena
Flu Activity No disponible.
METAR KPDX 290453Z 31011KT 10SM CLR 22/16 A3001 RMK AO2 SLP161 T02220156

More Conditions Fewer Conditions

10-Day Weather Forecast

Almanac

Astronomía

Aug. 28, 2014 Salida Puesta
Hora real 6:27 AM PDT 7:55 PM PDT
Crepúsculo civil 5:56 AM PDT 8:26 PM PDT
Crepúsculo náutico 5:18 AM PDT 9:03 PM PDT
Crepúsculo astronómico 4:38 AM PDT 9:43 PM PDT
Luna 9:35 AM PDT (8/28) 9:10 PM PDT (8/28)
Horas de luz 14h 29m
Horas de luz
13h 28m
Tomorrow will be 3m 2s shorter.
Creciente, 12% of the Moon is Illuminated
Ago 29
Creciente
Sep 2
Cuarto creciente
Sep 8
Luna llena
Sep 15
Cuarto menguante
Sep 24
Nueva

Extremos de ayer

Máximos del estado Bajos del estado

Community

WunderPhotos

Upload Photos

1,748,192 ¡fotos cargadas!

Nearby

Calidad del aire

  Calidad del aire Índice AQ Contaminante
Ayer Buena
OZONE
Ayer Buena
PM2.5
Real Buena
OZONE
Real Buena
PM2.5
Jueves Buena
PM2.5
Viernes Buena
PM2.5

Grosos de nieve

Estación Profundido Altura
Seine Creek 0 in 2000 ft
North Fork 1 in 3120 ft
Blazed Alder 0 in 3650 ft
Red Hill 0 in 4400 ft
Peavine Ridge 3 in 3500 ft

Actividad de terremotos

Ciudad Distance Mag. Tiempo y dato
No hay informes recientes de la actividad sísmica.
Magnitud mínima muestra es 2,5.

Temperaturas de aguas costeras

Lugar Temperatura
Sin partes meteorológicos de las estaciones

Estaciones meteorológicas cercanas